sensor_id;sensor_type;location;lat;lon;timestamp;temperature;humidity
74540;SHT31;66042;51.090;-115.340;2023-04-25T00:02:23;14.31;49.06
74540;SHT31;66042;51.090;-115.340;2023-04-25T00:04:50;14.08;49.19
74540;SHT31;66042;51.090;-115.340;2023-04-25T00:07:17;13.91;49.39
74540;SHT31;66042;51.090;-115.340;2023-04-25T00:09:44;13.80;49.07
74540;SHT31;66042;51.090;-115.340;2023-04-25T00:12:12;13.68;48.74
74540;SHT31;66042;51.090;-115.340;2023-04-25T00:14:39;13.58;49.36
74540;SHT31;66042;51.090;-115.340;2023-04-25T00:17:06;13.47;50.03
74540;SHT31;66042;51.090;-115.340;2023-04-25T00:19:33;13.40;50.08
74540;SHT31;66042;51.090;-115.340;2023-04-25T00:22:00;13.36;49.24
74540;SHT31;66042;51.090;-115.340;2023-04-25T00:24:27;13.31;48.48
74540;SHT31;66042;51.090;-115.340;2023-04-25T00:26:54;13.25;48.19
74540;SHT31;66042;51.090;-115.340;2023-04-25T00:29:21;13.29;48.17
74540;SHT31;66042;51.090;-115.340;2023-04-25T00:31:48;13.33;47.59
74540;SHT31;66042;51.090;-115.340;2023-04-25T00:34:14;13.38;47.63
74540;SHT31;66042;51.090;-115.340;2023-04-25T00:36:41;13.30;47.49
74540;SHT31;66042;51.090;-115.340;2023-04-25T00:39:08;13.13;47.52
74540;SHT31;66042;51.090;-115.340;2023-04-25T00:41:36;12.97;47.94
74540;SHT31;66042;51.090;-115.340;2023-04-25T00:44:03;12.82;48.44
74540;SHT31;66042;51.090;-115.340;2023-04-25T00:46:32;12.66;48.93
74540;SHT31;66042;51.090;-115.340;2023-04-25T00:48:59;12.51;49.11
74540;SHT31;66042;51.090;-115.340;2023-04-25T00:51:26;12.46;49.47
74540;SHT31;66042;51.090;-115.340;2023-04-25T00:53:53;12.62;49.19
74540;SHT31;66042;51.090;-115.340;2023-04-25T00:56:21;12.60;49.13
74540;SHT31;66042;51.090;-115.340;2023-04-25T00:58:48;12.51;49.57
74540;SHT31;66042;51.090;-115.340;2023-04-25T01:01:19;12.37;49.48
74540;SHT31;66042;51.090;-115.340;2023-04-25T01:03:47;12.29;49.58
74540;SHT31;66042;51.090;-115.340;2023-04-25T01:06:16;12.28;49.47
74540;SHT31;66042;51.090;-115.340;2023-04-25T01:08:43;12.25;49.50
74540;SHT31;66042;51.090;-115.340;2023-04-25T01:11:10;12.23;49.25
74540;SHT31;66042;51.090;-115.340;2023-04-25T01:13:37;12.22;48.82
74540;SHT31;66042;51.090;-115.340;2023-04-25T01:16:04;12.21;48.51
74540;SHT31;66042;51.090;-115.340;2023-04-25T01:18:32;12.16;48.51
74540;SHT31;66042;51.090;-115.340;2023-04-25T01:21:09;12.16;48.49
74540;SHT31;66042;51.090;-115.340;2023-04-25T01:23:41;12.11;48.77
74540;SHT31;66042;51.090;-115.340;2023-04-25T01:26:09;12.04;48.89
74540;SHT31;66042;51.090;-115.340;2023-04-25T01:28:38;11.96;48.73
74540;SHT31;66042;51.090;-115.340;2023-04-25T01:31:09;11.91;49.07
74540;SHT31;66042;51.090;-115.340;2023-04-25T01:33:37;11.91;49.31
74540;SHT31;66042;51.090;-115.340;2023-04-25T01:36:05;11.90;49.19
74540;SHT31;66042;51.090;-115.340;2023-04-25T01:38:33;11.89;49.38
74540;SHT31;66042;51.090;-115.340;2023-04-25T01:41:01;11.86;49.43
74540;SHT31;66042;51.090;-115.340;2023-04-25T01:43:28;11.84;49.54
74540;SHT31;66042;51.090;-115.340;2023-04-25T01:45:55;11.83;49.65
74540;SHT31;66042;51.090;-115.340;2023-04-25T01:48:23;11.83;49.60
74540;SHT31;66042;51.090;-115.340;2023-04-25T01:50:50;11.81;49.84
74540;SHT31;66042;51.090;-115.340;2023-04-25T01:53:17;11.79;50.19
74540;SHT31;66042;51.090;-115.340;2023-04-25T01:55:44;11.76;50.25
74540;SHT31;66042;51.090;-115.340;2023-04-25T01:58:11;11.74;50.21
74540;SHT31;66042;51.090;-115.340;2023-04-25T02:00:39;11.71;50.42
74540;SHT31;66042;51.090;-115.340;2023-04-25T02:03:06;11.69;50.44
74540;SHT31;66042;51.090;-115.340;2023-04-25T02:05:37;11.67;50.61
74540;SHT31;66042;51.090;-115.340;2023-04-25T02:08:05;11.65;50.66
74540;SHT31;66042;51.090;-115.340;2023-04-25T02:10:34;11.62;50.79
74540;SHT31;66042;51.090;-115.340;2023-04-25T02:13:01;11.58;50.88
74540;SHT31;66042;51.090;-115.340;2023-04-25T02:15:30;11.54;51.16
74540;SHT31;66042;51.090;-115.340;2023-04-25T02:17:57;11.50;51.25
74540;SHT31;66042;51.090;-115.340;2023-04-25T02:20:28;11.45;51.36
74540;SHT31;66042;51.090;-115.340;2023-04-25T02:22:56;11.42;51.53
74540;SHT31;66042;51.090;-115.340;2023-04-25T02:25:24;11.35;51.61
74540;SHT31;66042;51.090;-115.340;2023-04-25T02:27:51;11.31;51.71
74540;SHT31;66042;51.090;-115.340;2023-04-25T02:30:18;11.28;51.91
74540;SHT31;66042;51.090;-115.340;2023-04-25T02:32:45;11.24;52.11
74540;SHT31;66042;51.090;-115.340;2023-04-25T02:35:13;11.20;52.30
74540;SHT31;66042;51.090;-115.340;2023-04-25T02:37:40;11.16;52.43
74540;SHT31;66042;51.090;-115.340;2023-04-25T02:40:08;11.13;52.54
74540;SHT31;66042;51.090;-115.340;2023-04-25T02:42:36;11.07;52.95
74540;SHT31;66042;51.090;-115.340;2023-04-25T02:45:03;11.01;52.81
74540;SHT31;66042;51.090;-115.340;2023-04-25T02:47:31;10.97;52.71
74540;SHT31;66042;51.090;-115.340;2023-04-25T02:49:58;10.92;52.99
74540;SHT31;66042;51.090;-115.340;2023-04-25T02:52:25;10.88;53.20
74540;SHT31;66042;51.090;-115.340;2023-04-25T02:54:51;10.82;53.46
74540;SHT31;66042;51.090;-115.340;2023-04-25T02:57:18;10.75;53.72
74540;SHT31;66042;51.090;-115.340;2023-04-25T02:59:45;10.66;53.98
74540;SHT31;66042;51.090;-115.340;2023-04-25T03:02:12;10.61;53.93
74540;SHT31;66042;51.090;-115.340;2023-04-25T03:04:40;10.55;54.02
74540;SHT31;66042;51.090;-115.340;2023-04-25T03:07:07;10.47;54.17
74540;SHT31;66042;51.090;-115.340;2023-04-25T03:09:35;10.42;54.22
74540;SHT31;66042;51.090;-115.340;2023-04-25T03:12:02;10.36;54.42
74540;SHT31;66042;51.090;-115.340;2023-04-25T03:14:30;10.28;54.53
74540;SHT31;66042;51.090;-115.340;2023-04-25T03:16:57;10.21;54.62
74540;SHT31;66042;51.090;-115.340;2023-04-25T03:19:24;10.15;54.72
74540;SHT31;66042;51.090;-115.340;2023-04-25T03:21:51;10.10;54.89
74540;SHT31;66042;51.090;-115.340;2023-04-25T03:24:19;10.03;55.00
74540;SHT31;66042;51.090;-115.340;2023-04-25T03:26:46;9.97;55.04
74540;SHT31;66042;51.090;-115.340;2023-04-25T03:29:13;9.89;55.38
74540;SHT31;66042;51.090;-115.340;2023-04-25T03:31:40;9.81;55.48
74540;SHT31;66042;51.090;-115.340;2023-04-25T03:34:07;9.76;55.56
74540;SHT31;66042;51.090;-115.340;2023-04-25T03:36:34;9.70;55.74
74540;SHT31;66042;51.090;-115.340;2023-04-25T03:39:01;9.64;55.87
74540;SHT31;66042;51.090;-115.340;2023-04-25T03:41:28;9.58;55.95
74540;SHT31;66042;51.090;-115.340;2023-04-25T03:43:55;9.53;56.10
74540;SHT31;66042;51.090;-115.340;2023-04-25T03:46:22;9.45;56.21
74540;SHT31;66042;51.090;-115.340;2023-04-25T03:48:49;9.39;56.32
74540;SHT31;66042;51.090;-115.340;2023-04-25T03:51:16;9.34;56.40
74540;SHT31;66042;51.090;-115.340;2023-04-25T03:53:43;9.27;56.45
74540;SHT31;66042;51.090;-115.340;2023-04-25T03:56:10;9.21;56.60
74540;SHT31;66042;51.090;-115.340;2023-04-25T03:58:37;9.15;56.61
74540;SHT31;66042;51.090;-115.340;2023-04-25T04:01:04;9.09;56.71
74540;SHT31;66042;51.090;-115.340;2023-04-25T04:03:33;9.03;56.81
74540;SHT31;66042;51.090;-115.340;2023-04-25T04:06:01;8.96;57.06
74540;SHT31;66042;51.090;-115.340;2023-04-25T04:08:31;8.90;57.17
74540;SHT31;66042;51.090;-115.340;2023-04-25T04:10:59;8.84;57.17
74540;SHT31;66042;51.090;-115.340;2023-04-25T04:13:26;8.79;57.25
74540;SHT31;66042;51.090;-115.340;2023-04-25T04:15:54;8.73;57.30
74540;SHT31;66042;51.090;-115.340;2023-04-25T04:18:21;8.66;57.36
74540;SHT31;66042;51.090;-115.340;2023-04-25T04:20:48;8.60;57.57
74540;SHT31;66042;51.090;-115.340;2023-04-25T04:23:15;8.52;57.68
74540;SHT31;66042;51.090;-115.340;2023-04-25T04:25:42;8.48;57.86
74540;SHT31;66042;51.090;-115.340;2023-04-25T04:28:09;8.44;58.09
74540;SHT31;66042;51.090;-115.340;2023-04-25T04:30:37;8.39;58.18
74540;SHT31;66042;51.090;-115.340;2023-04-25T04:33:04;8.34;58.37
74540;SHT31;66042;51.090;-115.340;2023-04-25T04:35:33;8.29;58.43
74540;SHT31;66042;51.090;-115.340;2023-04-25T04:38:00;8.26;58.41
74540;SHT31;66042;51.090;-115.340;2023-04-25T04:40:27;8.20;58.40
74540;SHT31;66042;51.090;-115.340;2023-04-25T04:42:57;8.15;58.40
74540;SHT31;66042;51.090;-115.340;2023-04-25T04:45:24;8.10;58.44
74540;SHT31;66042;51.090;-115.340;2023-04-25T04:47:52;8.03;58.52
74540;SHT31;66042;51.090;-115.340;2023-04-25T04:50:20;7.98;58.51
74540;SHT31;66042;51.090;-115.340;2023-04-25T04:52:48;7.92;58.58
74540;SHT31;66042;51.090;-115.340;2023-04-25T04:55:15;7.86;58.90
74540;SHT31;66042;51.090;-115.340;2023-04-25T04:57:42;7.75;59.25
74540;SHT31;66042;51.090;-115.340;2023-04-25T05:00:09;7.68;59.39
74540;SHT31;66042;51.090;-115.340;2023-04-25T05:02:38;7.66;59.52
74540;SHT31;66042;51.090;-115.340;2023-04-25T05:05:06;7.63;59.76
74540;SHT31;66042;51.090;-115.340;2023-04-25T05:07:33;7.61;59.90
74540;SHT31;66042;51.090;-115.340;2023-04-25T05:10:01;7.63;59.79
74540;SHT31;66042;51.090;-115.340;2023-04-25T05:12:28;7.66;59.83
74540;SHT31;66042;51.090;-115.340;2023-04-25T05:14:56;7.69;59.87
74540;SHT31;66042;51.090;-115.340;2023-04-25T05:17:23;7.70;59.89
74540;SHT31;66042;51.090;-115.340;2023-04-25T05:19:50;7.71;59.89
74540;SHT31;66042;51.090;-115.340;2023-04-25T05:22:17;7.71;59.77
74540;SHT31;66042;51.090;-115.340;2023-04-25T05:24:44;7.72;59.67
74540;SHT31;66042;51.090;-115.340;2023-04-25T05:27:11;7.68;59.82
74540;SHT31;66042;51.090;-115.340;2023-04-25T05:29:38;7.58;60.12
74540;SHT31;66042;51.090;-115.340;2023-04-25T05:32:05;7.55;60.07
74540;SHT31;66042;51.090;-115.340;2023-04-25T05:34:34;7.53;60.24
74540;SHT31;66042;51.090;-115.340;2023-04-25T05:37:01;7.48;60.43
74540;SHT31;66042;51.090;-115.340;2023-04-25T05:39:31;7.47;60.37
74540;SHT31;66042;51.090;-115.340;2023-04-25T05:41:58;7.45;60.31
74540;SHT31;66042;51.090;-115.340;2023-04-25T05:44:26;7.45;60.31
74540;SHT31;66042;51.090;-115.340;2023-04-25T05:46:54;7.43;60.31
74540;SHT31;66042;51.090;-115.340;2023-04-25T05:49:21;7.39;60.37
74540;SHT31;66042;51.090;-115.340;2023-04-25T05:51:48;7.33;60.50
74540;SHT31;66042;51.090;-115.340;2023-04-25T05:54:15;7.28;60.72
74540;SHT31;66042;51.090;-115.340;2023-04-25T05:56:42;7.23;60.88
74540;SHT31;66042;51.090;-115.340;2023-04-25T05:59:10;7.20;61.10
74540;SHT31;66042;51.090;-115.340;2023-04-25T06:01:36;7.18;61.21
74540;SHT31;66042;51.090;-115.340;2023-04-25T06:04:04;7.14;61.35
74540;SHT31;66042;51.090;-115.340;2023-04-25T06:06:30;7.09;61.58
74540;SHT31;66042;51.090;-115.340;2023-04-25T06:08:57;7.05;61.56
74540;SHT31;66042;51.090;-115.340;2023-04-25T06:11:24;7.02;61.46
74540;SHT31;66042;51.090;-115.340;2023-04-25T06:13:51;6.99;61.40
74540;SHT31;66042;51.090;-115.340;2023-04-25T06:16:19;6.90;61.63
74540;SHT31;66042;51.090;-115.340;2023-04-25T06:18:46;6.85;61.78
74540;SHT31;66042;51.090;-115.340;2023-04-25T06:21:13;6.80;62.02
74540;SHT31;66042;51.090;-115.340;2023-04-25T06:23:41;6.80;62.08
74540;SHT31;66042;51.090;-115.340;2023-04-25T06:26:08;6.82;61.92
74540;SHT31;66042;51.090;-115.340;2023-04-25T06:28:35;6.82;61.90
74540;SHT31;66042;51.090;-115.340;2023-04-25T06:31:02;6.82;61.83
74540;SHT31;66042;51.090;-115.340;2023-04-25T06:33:29;6.81;61.69
74540;SHT31;66042;51.090;-115.340;2023-04-25T06:35:56;6.79;61.60
74540;SHT31;66042;51.090;-115.340;2023-04-25T06:38:23;6.75;61.82
74540;SHT31;66042;51.090;-115.340;2023-04-25T06:40:50;6.69;62.06
74540;SHT31;66042;51.090;-115.340;2023-04-25T06:43:17;6.66;62.10
74540;SHT31;66042;51.090;-115.340;2023-04-25T06:45:45;6.64;62.19
74540;SHT31;66042;51.090;-115.340;2023-04-25T06:48:12;6.59;62.38
74540;SHT31;66042;51.090;-115.340;2023-04-25T06:50:39;6.56;62.41
74540;SHT31;66042;51.090;-115.340;2023-04-25T06:53:06;6.56;62.38
74540;SHT31;66042;51.090;-115.340;2023-04-25T06:55:34;6.56;62.20
74540;SHT31;66042;51.090;-115.340;2023-04-25T06:58:01;6.50;62.48
74540;SHT31;66042;51.090;-115.340;2023-04-25T07:00:28;6.40;62.92
74540;SHT31;66042;51.090;-115.340;2023-04-25T07:02:55;6.37;63.07
74540;SHT31;66042;51.090;-115.340;2023-04-25T07:05:22;6.37;63.34
74540;SHT31;66042;51.090;-115.340;2023-04-25T07:07:49;6.37;63.40
74540;SHT31;66042;51.090;-115.340;2023-04-25T07:10:16;6.37;63.40
74540;SHT31;66042;51.090;-115.340;2023-04-25T07:12:43;6.39;63.49
74540;SHT31;66042;51.090;-115.340;2023-04-25T07:15:10;6.40;63.57
74540;SHT31;66042;51.090;-115.340;2023-04-25T07:17:37;6.43;63.55
74540;SHT31;66042;51.090;-115.340;2023-04-25T07:20:04;6.45;63.56
74540;SHT31;66042;51.090;-115.340;2023-04-25T07:22:32;6.47;63.54
74540;SHT31;66042;51.090;-115.340;2023-04-25T07:25:00;6.50;63.60
74540;SHT31;66042;51.090;-115.340;2023-04-25T07:27:28;6.51;63.81
74540;SHT31;66042;51.090;-115.340;2023-04-25T07:29:55;6.54;63.53
74540;SHT31;66042;51.090;-115.340;2023-04-25T07:32:22;6.57;63.51
74540;SHT31;66042;51.090;-115.340;2023-04-25T07:34:51;6.57;63.69
74540;SHT31;66042;51.090;-115.340;2023-04-25T07:37:18;6.55;63.82
74540;SHT31;66042;51.090;-115.340;2023-04-25T07:39:45;6.53;63.84
74540;SHT31;66042;51.090;-115.340;2023-04-25T07:42:13;6.49;64.14
74540;SHT31;66042;51.090;-115.340;2023-04-25T07:44:40;6.47;63.96
74540;SHT31;66042;51.090;-115.340;2023-04-25T07:47:07;6.47;63.98
74540;SHT31;66042;51.090;-115.340;2023-04-25T07:49:36;6.45;64.02
74540;SHT31;66042;51.090;-115.340;2023-04-25T07:52:04;6.42;64.53
74540;SHT31;66042;51.090;-115.340;2023-04-25T07:54:31;6.32;64.90
74540;SHT31;66042;51.090;-115.340;2023-04-25T07:56:58;6.28;64.63
74540;SHT31;66042;51.090;-115.340;2023-04-25T07:59:25;6.27;64.68
74540;SHT31;66042;51.090;-115.340;2023-04-25T08:01:52;6.24;64.88
74540;SHT31;66042;51.090;-115.340;2023-04-25T08:04:19;6.25;64.92
74540;SHT31;66042;51.090;-115.340;2023-04-25T08:06:46;6.27;64.91
74540;SHT31;66042;51.090;-115.340;2023-04-25T08:09:14;6.30;65.08
74540;SHT31;66042;51.090;-115.340;2023-04-25T08:11:41;6.30;65.09
74540;SHT31;66042;51.090;-115.340;2023-04-25T08:14:08;6.25;65.43
74540;SHT31;66042;51.090;-115.340;2023-04-25T08:16:35;6.23;65.30
74540;SHT31;66042;51.090;-115.340;2023-04-25T08:19:02;6.27;65.27
74540;SHT31;66042;51.090;-115.340;2023-04-25T08:21:30;6.24;65.51
74540;SHT31;66042;51.090;-115.340;2023-04-25T08:23:58;6.24;65.39
74540;SHT31;66042;51.090;-115.340;2023-04-25T08:26:26;6.26;65.46
74540;SHT31;66042;51.090;-115.340;2023-04-25T08:28:54;6.26;65.38
74540;SHT31;66042;51.090;-115.340;2023-04-25T08:31:21;6.27;65.43
74540;SHT31;66042;51.090;-115.340;2023-04-25T08:33:48;6.23;65.81
74540;SHT31;66042;51.090;-115.340;2023-04-25T08:36:17;6.19;65.90
74540;SHT31;66042;51.090;-115.340;2023-04-25T08:38:44;6.17;65.87
74540;SHT31;66042;51.090;-115.340;2023-04-25T08:41:11;6.16;65.67
74540;SHT31;66042;51.090;-115.340;2023-04-25T08:43:41;6.14;65.50
74540;SHT31;66042;51.090;-115.340;2023-04-25T08:46:11;6.12;65.48
74540;SHT31;66042;51.090;-115.340;2023-04-25T08:48:43;6.09;65.60
74540;SHT31;66042;51.090;-115.340;2023-04-25T08:51:24;6.10;65.66
74540;SHT31;66042;51.090;-115.340;2023-04-25T08:53:56;6.11;65.63
74540;SHT31;66042;51.090;-115.340;2023-04-25T08:56:39;6.12;65.64
74540;SHT31;66042;51.090;-115.340;2023-04-25T08:59:11;6.14;65.51
74540;SHT31;66042;51.090;-115.340;2023-04-25T09:01:38;6.15;65.31
74540;SHT31;66042;51.090;-115.340;2023-04-25T09:04:05;6.16;65.27
74540;SHT31;66042;51.090;-115.340;2023-04-25T09:06:33;6.10;65.43
74540;SHT31;66042;51.090;-115.340;2023-04-25T09:09:04;6.08;65.30
74540;SHT31;66042;51.090;-115.340;2023-04-25T09:11:34;6.07;65.15
74540;SHT31;66042;51.090;-115.340;2023-04-25T09:14:12;6.08;65.00
74540;SHT31;66042;51.090;-115.340;2023-04-25T09:22:03;5.88;65.45
74540;SHT31;66042;51.090;-115.340;2023-04-25T09:24:35;5.84;65.62
74540;SHT31;66042;51.090;-115.340;2023-04-25T09:27:04;5.85;65.50
74540;SHT31;66042;51.090;-115.340;2023-04-25T09:29:34;5.87;65.29
74540;SHT31;66042;51.090;-115.340;2023-04-25T09:37:23;5.82;65.19
74540;SHT31;66042;51.090;-115.340;2023-04-25T09:39:53;5.78;65.16
74540;SHT31;66042;51.090;-115.340;2023-04-25T09:42:28;5.78;65.09
74540;SHT31;66042;51.090;-115.340;2023-04-25T09:44:57;5.77;64.97
74540;SHT31;66042;51.090;-115.340;2023-04-25T09:47:29;5.74;64.88
74540;SHT31;66042;51.090;-115.340;2023-04-25T09:49:56;5.72;64.80
74540;SHT31;66042;51.090;-115.340;2023-04-25T09:52:24;5.67;64.81
74540;SHT31;66042;51.090;-115.340;2023-04-25T09:54:51;5.68;64.74
74540;SHT31;66042;51.090;-115.340;2023-04-25T09:57:21;5.71;64.58
74540;SHT31;66042;51.090;-115.340;2023-04-25T09:59:51;5.75;64.42
74540;SHT31;66042;51.090;-115.340;2023-04-25T10:02:21;5.69;64.39
74540;SHT31;66042;51.090;-115.340;2023-04-25T10:04:52;5.68;64.25
74540;SHT31;66042;51.090;-115.340;2023-04-25T10:07:22;5.64;64.20
74540;SHT31;66042;51.090;-115.340;2023-04-25T10:09:55;5.63;64.15
74540;SHT31;66042;51.090;-115.340;2023-04-25T10:12:30;5.63;64.09
74540;SHT31;66042;51.090;-115.340;2023-04-25T10:14:59;5.61;63.97
74540;SHT31;66042;51.090;-115.340;2023-04-25T10:17:29;5.58;63.88
74540;SHT31;66042;51.090;-115.340;2023-04-25T10:19:58;5.54;63.73
74540;SHT31;66042;51.090;-115.340;2023-04-25T10:22:37;5.46;63.81
74540;SHT31;66042;51.090;-115.340;2023-04-25T10:25:10;5.32;63.80
74540;SHT31;66042;51.090;-115.340;2023-04-25T10:27:38;5.27;63.83
74540;SHT31;66042;51.090;-115.340;2023-04-25T10:32:43;5.25;63.69
74540;SHT31;66042;51.090;-115.340;2023-04-25T10:35:19;5.24;63.63
74540;SHT31;66042;51.090;-115.340;2023-04-25T10:40:29;5.07;63.58
74540;SHT31;66042;51.090;-115.340;2023-04-25T10:43:33;5.00;63.75
74540;SHT31;66042;51.090;-115.340;2023-04-25T10:46:12;4.95;63.40
74540;SHT31;66042;51.090;-115.340;2023-04-25T10:51:22;4.83;63.43
74540;SHT31;66042;51.090;-115.340;2023-04-25T10:54:07;4.84;63.48
74540;SHT31;66042;51.090;-115.340;2023-04-25T10:59:12;4.81;63.15
74540;SHT31;66042;51.090;-115.340;2023-04-25T11:01:44;4.82;63.34
74540;SHT31;66042;51.090;-115.340;2023-04-25T11:04:23;4.83;63.13
74540;SHT31;66042;51.090;-115.340;2023-04-25T11:07:07;4.81;62.97
74540;SHT31;66042;51.090;-115.340;2023-04-25T11:10:32;4.85;62.89
74540;SHT31;66042;51.090;-115.340;2023-04-25T11:13:03;4.91;62.75
74540;SHT31;66042;51.090;-115.340;2023-04-25T11:15:30;4.93;62.32
74540;SHT31;66042;51.090;-115.340;2023-04-25T11:17:57;4.92;62.42
74540;SHT31;66042;51.090;-115.340;2023-04-25T11:20:25;4.94;62.37
74540;SHT31;66042;51.090;-115.340;2023-04-25T11:22:54;4.94;62.27
74540;SHT31;66042;51.090;-115.340;2023-04-25T11:25:25;4.96;62.18
74540;SHT31;66042;51.090;-115.340;2023-04-25T11:27:54;4.99;62.02
74540;SHT31;66042;51.090;-115.340;2023-04-25T11:30:25;4.96;61.92
74540;SHT31;66042;51.090;-115.340;2023-04-25T11:32:55;4.94;61.80
74540;SHT31;66042;51.090;-115.340;2023-04-25T11:35:22;4.92;61.89
74540;SHT31;66042;51.090;-115.340;2023-04-25T11:37:51;4.86;61.72
74540;SHT31;66042;51.090;-115.340;2023-04-25T11:40:18;4.78;61.74
74540;SHT31;66042;51.090;-115.340;2023-04-25T11:42:45;4.72;61.87
74540;SHT31;66042;51.090;-115.340;2023-04-25T11:45:13;4.71;61.79
74540;SHT31;66042;51.090;-115.340;2023-04-25T11:47:40;4.70;61.63
74540;SHT31;66042;51.090;-115.340;2023-04-25T11:50:08;4.66;61.20
74540;SHT31;66042;51.090;-115.340;2023-04-25T11:52:36;4.59;61.41
74540;SHT31;66042;51.090;-115.340;2023-04-25T11:55:10;4.56;61.44
74540;SHT31;66042;51.090;-115.340;2023-04-25T11:57:42;4.55;61.40
74540;SHT31;66042;51.090;-115.340;2023-04-25T12:00:16;4.46;61.34
74540;SHT31;66042;51.090;-115.340;2023-04-25T12:02:46;4.43;61.61
74540;SHT31;66042;51.090;-115.340;2023-04-25T12:05:18;4.39;61.54
74540;SHT31;66042;51.090;-115.340;2023-04-25T12:07:46;4.36;61.67
74540;SHT31;66042;51.090;-115.340;2023-04-25T12:10:14;4.37;61.67
74540;SHT31;66042;51.090;-115.340;2023-04-25T12:12:44;4.34;61.46
74540;SHT31;66042;51.090;-115.340;2023-04-25T12:15:16;4.32;61.57
74540;SHT31;66042;51.090;-115.340;2023-04-25T12:17:50;4.34;61.62
74540;SHT31;66042;51.090;-115.340;2023-04-25T12:20:21;4.34;61.28
74540;SHT31;66042;51.090;-115.340;2023-04-25T12:22:51;4.34;61.43
74540;SHT31;66042;51.090;-115.340;2023-04-25T12:28:17;4.30;61.04
74540;SHT31;66042;51.090;-115.340;2023-04-25T12:31:02;4.28;61.18
74540;SHT31;66042;51.090;-115.340;2023-04-25T12:33:32;4.30;61.04
74540;SHT31;66042;51.090;-115.340;2023-04-25T12:36:02;4.30;61.17
74540;SHT31;66042;51.090;-115.340;2023-04-25T12:38:40;4.28;61.11
74540;SHT31;66042;51.090;-115.340;2023-04-25T12:41:08;4.32;61.02
74540;SHT31;66042;51.090;-115.340;2023-04-25T12:43:34;4.35;60.71
74540;SHT31;66042;51.090;-115.340;2023-04-25T12:46:02;4.36;60.20
74540;SHT31;66042;51.090;-115.340;2023-04-25T12:48:29;4.33;60.05
74540;SHT31;66042;51.090;-115.340;2023-04-25T12:50:56;4.33;60.30
74540;SHT31;66042;51.090;-115.340;2023-04-25T12:53:24;4.36;60.53
74540;SHT31;66042;51.090;-115.340;2023-04-25T12:55:51;4.39;60.55
74540;SHT31;66042;51.090;-115.340;2023-04-25T12:58:18;4.41;60.54
74540;SHT31;66042;51.090;-115.340;2023-04-25T13:00:46;4.43;60.71
74540;SHT31;66042;51.090;-115.340;2023-04-25T13:03:14;4.46;60.67
74540;SHT31;66042;51.090;-115.340;2023-04-25T13:05:43;4.47;60.55
74540;SHT31;66042;51.090;-115.340;2023-04-25T13:08:10;4.47;60.22
74540;SHT31;66042;51.090;-115.340;2023-04-25T13:10:37;4.49;60.36
74540;SHT31;66042;51.090;-115.340;2023-04-25T13:13:04;4.53;60.54
74540;SHT31;66042;51.090;-115.340;2023-04-25T13:15:31;4.53;60.17
74540;SHT31;66042;51.090;-115.340;2023-04-25T13:17:58;4.55;60.39
74540;SHT31;66042;51.090;-115.340;2023-04-25T13:20:25;4.59;60.11
74540;SHT31;66042;51.090;-115.340;2023-04-25T13:22:52;4.65;60.18
74540;SHT31;66042;51.090;-115.340;2023-04-25T13:25:19;4.70;60.34
74540;SHT31;66042;51.090;-115.340;2023-04-25T13:27:47;4.74;60.48
74540;SHT31;66042;51.090;-115.340;2023-04-25T13:30:14;4.77;60.46
74540;SHT31;66042;51.090;-115.340;2023-04-25T13:32:42;4.82;60.22
74540;SHT31;66042;51.090;-115.340;2023-04-25T13:35:10;4.86;59.97
74540;SHT31;66042;51.090;-115.340;2023-04-25T13:37:39;4.91;59.88
74540;SHT31;66042;51.090;-115.340;2023-04-25T13:40:07;4.95;59.66
74540;SHT31;66042;51.090;-115.340;2023-04-25T13:42:37;4.98;59.68
74540;SHT31;66042;51.090;-115.340;2023-04-25T13:45:06;5.03;59.93
74540;SHT31;66042;51.090;-115.340;2023-04-25T13:47:34;5.07;59.91
74540;SHT31;66042;51.090;-115.340;2023-04-25T13:50:01;5.12;59.67
74540;SHT31;66042;51.090;-115.340;2023-04-25T13:52:29;5.17;59.09
74540;SHT31;66042;51.090;-115.340;2023-04-25T13:54:56;5.23;58.93
74540;SHT31;66042;51.090;-115.340;2023-04-25T13:57:23;5.30;57.56
74540;SHT31;66042;51.090;-115.340;2023-04-25T13:59:51;5.39;56.40
74540;SHT31;66042;51.090;-115.340;2023-04-25T14:02:19;5.46;56.08
74540;SHT31;66042;51.090;-115.340;2023-04-25T14:04:46;5.52;56.00
74540;SHT31;66042;51.090;-115.340;2023-04-25T14:07:13;5.60;55.84
74540;SHT31;66042;51.090;-115.340;2023-04-25T14:09:49;5.66;55.74
74540;SHT31;66042;51.090;-115.340;2023-04-25T14:12:17;5.74;55.73
74540;SHT31;66042;51.090;-115.340;2023-04-25T14:14:44;5.81;55.74
74540;SHT31;66042;51.090;-115.340;2023-04-25T14:17:11;5.90;56.03
74540;SHT31;66042;51.090;-115.340;2023-04-25T14:19:38;5.99;55.91
74540;SHT31;66042;51.090;-115.340;2023-04-25T14:22:08;6.11;53.94
74540;SHT31;66042;51.090;-115.340;2023-04-25T14:24:35;6.28;52.09
74540;SHT31;66042;51.090;-115.340;2023-04-25T14:27:03;6.45;51.21
74540;SHT31;66042;51.090;-115.340;2023-04-25T14:29:31;6.60;50.47
74540;SHT31;66042;51.090;-115.340;2023-04-25T14:31:58;6.74;50.08
74540;SHT31;66042;51.090;-115.340;2023-04-25T14:34:25;6.88;49.13
74540;SHT31;66042;51.090;-115.340;2023-04-25T14:36:53;6.99;48.51
74540;SHT31;66042;51.090;-115.340;2023-04-25T14:39:20;7.10;47.92
74540;SHT31;66042;51.090;-115.340;2023-04-25T14:41:47;7.21;47.51
74540;SHT31;66042;51.090;-115.340;2023-04-25T14:44:14;7.29;47.13
74540;SHT31;66042;51.090;-115.340;2023-04-25T14:46:42;7.37;46.98
74540;SHT31;66042;51.090;-115.340;2023-04-25T14:49:09;7.45;46.28
74540;SHT31;66042;51.090;-115.340;2023-04-25T14:51:36;7.53;46.19
74540;SHT31;66042;51.090;-115.340;2023-04-25T14:54:03;7.62;45.52
74540;SHT31;66042;51.090;-115.340;2023-04-25T14:56:30;7.70;45.43
74540;SHT31;66042;51.090;-115.340;2023-04-25T14:58:57;7.77;45.41
74540;SHT31;66042;51.090;-115.340;2023-04-25T15:01:24;7.84;45.12
74540;SHT31;66042;51.090;-115.340;2023-04-25T15:03:51;7.91;44.89
74540;SHT31;66042;51.090;-115.340;2023-04-25T15:06:18;7.98;45.31
74540;SHT31;66042;51.090;-115.340;2023-04-25T15:08:45;8.05;45.03
74540;SHT31;66042;51.090;-115.340;2023-04-25T15:11:12;8.11;43.99
74540;SHT31;66042;51.090;-115.340;2023-04-25T15:13:39;8.18;44.12
74540;SHT31;66042;51.090;-115.340;2023-04-25T15:16:06;8.24;44.08
74540;SHT31;66042;51.090;-115.340;2023-04-25T15:18:33;8.31;43.51
74540;SHT31;66042;51.090;-115.340;2023-04-25T15:21:00;8.37;43.28
74540;SHT31;66042;51.090;-115.340;2023-04-25T15:23:29;8.43;43.04
74540;SHT31;66042;51.090;-115.340;2023-04-25T15:25:56;8.51;42.59
74540;SHT31;66042;51.090;-115.340;2023-04-25T15:28:23;8.60;42.40
74540;SHT31;66042;51.090;-115.340;2023-04-25T15:30:51;8.69;42.59